sensor_id;sensor_type;location;lat;lon;timestamp;temperature;humidity
53711;DHT22;39605;52.704;6.752;2023-04-25T00:01:40;6.80;99.90
53711;DHT22;39605;52.704;6.752;2023-04-25T00:04:08;6.80;99.90
53711;DHT22;39605;52.704;6.752;2023-04-25T00:06:37;6.80;99.90
53711;DHT22;39605;52.704;6.752;2023-04-25T00:09:09;6.80;99.90
53711;DHT22;39605;52.704;6.752;2023-04-25T00:11:36;6.80;99.90
53711;DHT22;39605;52.704;6.752;2023-04-25T00:14:09;6.90;99.90
53711;DHT22;39605;52.704;6.752;2023-04-25T00:16:42;6.90;99.90
53711;DHT22;39605;52.704;6.752;2023-04-25T00:19:09;6.90;99.90
53711;DHT22;39605;52.704;6.752;2023-04-25T00:21:37;6.80;99.90
53711;DHT22;39605;52.704;6.752;2023-04-25T00:24:07;6.80;99.90
53711;DHT22;39605;52.704;6.752;2023-04-25T00:26:34;6.70;99.90
53711;DHT22;39605;52.704;6.752;2023-04-25T00:29:02;6.60;99.90
53711;DHT22;39605;52.704;6.752;2023-04-25T00:31:28;6.60;99.90
53711;DHT22;39605;52.704;6.752;2023-04-25T00:33:59;6.50;99.90
53711;DHT22;39605;52.704;6.752;2023-04-25T00:36:27;6.50;99.90
53711;DHT22;39605;52.704;6.752;2023-04-25T00:38:53;6.40;99.90
53711;DHT22;39605;52.704;6.752;2023-04-25T00:41:27;6.50;99.90
53711;DHT22;39605;52.704;6.752;2023-04-25T00:43:56;6.30;99.90
53711;DHT22;39605;52.704;6.752;2023-04-25T00:46:22;6.20;99.90
53711;DHT22;39605;52.704;6.752;2023-04-25T00:48:48;6.10;99.90
53711;DHT22;39605;52.704;6.752;2023-04-25T00:51:22;6.10;99.90
53711;DHT22;39605;52.704;6.752;2023-04-25T00:53:52;6.10;99.90
53711;DHT22;39605;52.704;6.752;2023-04-25T00:56:18;6.00;99.90
53711;DHT22;39605;52.704;6.752;2023-04-25T00:58:45;6.00;99.90
53711;DHT22;39605;52.704;6.752;2023-04-25T01:01:13;5.90;99.90
53711;DHT22;39605;52.704;6.752;2023-04-25T01:03:43;5.90;99.90
53711;DHT22;39605;52.704;6.752;2023-04-25T01:06:12;6.10;99.90
53711;DHT22;39605;52.704;6.752;2023-04-25T01:08:43;5.80;99.90
53711;DHT22;39605;52.704;6.752;2023-04-25T01:11:12;5.70;99.90
53711;DHT22;39605;52.704;6.752;2023-04-25T01:13:41;6.00;99.90
53711;DHT22;39605;52.704;6.752;2023-04-25T01:16:09;6.00;99.90
53711;DHT22;39605;52.704;6.752;2023-04-25T01:18:39;6.10;99.90
53711;DHT22;39605;52.704;6.752;2023-04-25T01:21:17;5.60;99.90
53711;DHT22;39605;52.704;6.752;2023-04-25T01:23:43;5.60;99.90
53711;DHT22;39605;52.704;6.752;2023-04-25T01:26:18;5.60;99.90
53711;DHT22;39605;52.704;6.752;2023-04-25T01:28:47;5.80;99.90
53711;DHT22;39605;52.704;6.752;2023-04-25T01:31:23;5.60;99.90
53711;DHT22;39605;52.704;6.752;2023-04-25T01:33:49;5.60;99.90
53711;DHT22;39605;52.704;6.752;2023-04-25T01:36:15;5.80;99.90
53711;DHT22;39605;52.704;6.752;2023-04-25T01:38:41;5.70;99.90
53711;DHT22;39605;52.704;6.752;2023-04-25T01:41:14;5.60;99.90
53711;DHT22;39605;52.704;6.752;2023-04-25T01:43:50;5.60;99.90
53711;DHT22;39605;52.704;6.752;2023-04-25T01:46:16;5.60;99.90
53711;DHT22;39605;52.704;6.752;2023-04-25T01:48:44;5.50;99.90
53711;DHT22;39605;52.704;6.752;2023-04-25T01:51:13;5.60;99.90
53711;DHT22;39605;52.704;6.752;2023-04-25T01:53:39;5.50;99.90
53711;DHT22;39605;52.704;6.752;2023-04-25T01:56:05;5.50;99.90
53711;DHT22;39605;52.704;6.752;2023-04-25T01:58:34;5.40;99.90
53711;DHT22;39605;52.704;6.752;2023-04-25T02:01:07;5.40;99.90
53711;DHT22;39605;52.704;6.752;2023-04-25T02:03:40;5.40;99.90
53711;DHT22;39605;52.704;6.752;2023-04-25T02:06:13;5.60;99.90
53711;DHT22;39605;52.704;6.752;2023-04-25T02:08:42;5.30;99.90
53711;DHT22;39605;52.704;6.752;2023-04-25T02:11:08;5.40;99.90
53711;DHT22;39605;52.704;6.752;2023-04-25T02:13:36;5.50;99.90
53711;DHT22;39605;52.704;6.752;2023-04-25T02:16:04;5.50;99.90
53711;DHT22;39605;52.704;6.752;2023-04-25T02:18:30;5.60;99.90
53711;DHT22;39605;52.704;6.752;2023-04-25T02:21:01;5.60;99.90
53711;DHT22;39605;52.704;6.752;2023-04-25T02:23:32;5.60;99.90
53711;DHT22;39605;52.704;6.752;2023-04-25T02:26:23;5.70;99.90
53711;DHT22;39605;52.704;6.752;2023-04-25T02:28:50;5.70;99.90
53711;DHT22;39605;52.704;6.752;2023-04-25T02:31:16;5.80;99.90
53711;DHT22;39605;52.704;6.752;2023-04-25T02:33:44;5.80;99.90
53711;DHT22;39605;52.704;6.752;2023-04-25T02:36:15;5.90;99.90
53711;DHT22;39605;52.704;6.752;2023-04-25T02:38:41;5.90;99.90
53711;DHT22;39605;52.704;6.752;2023-04-25T02:41:09;5.90;99.90
53711;DHT22;39605;52.704;6.752;2023-04-25T02:43:38;5.90;99.90
53711;DHT22;39605;52.704;6.752;2023-04-25T02:46:07;5.90;99.90
53711;DHT22;39605;52.704;6.752;2023-04-25T02:48:35;6.20;99.90
53711;DHT22;39605;52.704;6.752;2023-04-25T02:51:08;5.90;99.90
53711;DHT22;39605;52.704;6.752;2023-04-25T02:53:50;5.90;99.90
53711;DHT22;39605;52.704;6.752;2023-04-25T02:56:38;5.90;99.90
53711;DHT22;39605;52.704;6.752;2023-04-25T02:59:04;5.90;99.90
53711;DHT22;39605;52.704;6.752;2023-04-25T03:01:50;5.90;99.90
53711;DHT22;39605;52.704;6.752;2023-04-25T03:04:19;5.90;99.90
53711;DHT22;39605;52.704;6.752;2023-04-25T03:06:50;5.90;99.90
53711;DHT22;39605;52.704;6.752;2023-04-25T03:09:21;5.90;99.90
53711;DHT22;39605;52.704;6.752;2023-04-25T03:11:49;5.90;99.90
53711;DHT22;39605;52.704;6.752;2023-04-25T03:14:24;6.10;99.90
53711;DHT22;39605;52.704;6.752;2023-04-25T03:16:50;5.90;99.90
53711;DHT22;39605;52.704;6.752;2023-04-25T03:19:18;5.90;99.90
53711;DHT22;39605;52.704;6.752;2023-04-25T03:22:06;5.90;99.90
53711;DHT22;39605;52.704;6.752;2023-04-25T03:24:35;5.90;99.90
53711;DHT22;39605;52.704;6.752;2023-04-25T03:27:10;5.90;99.90
53711;DHT22;39605;52.704;6.752;2023-04-25T03:29:39;5.90;99.90
53711;DHT22;39605;52.704;6.752;2023-04-25T03:32:10;5.80;99.90
53711;DHT22;39605;52.704;6.752;2023-04-25T03:34:36;5.80;99.90
53711;DHT22;39605;52.704;6.752;2023-04-25T03:37:07;5.80;99.90
53711;DHT22;39605;52.704;6.752;2023-04-25T03:39:33;5.80;99.90
53711;DHT22;39605;52.704;6.752;2023-04-25T03:41:59;5.80;99.90
53711;DHT22;39605;52.704;6.752;2023-04-25T03:44:28;5.80;99.90
53711;DHT22;39605;52.704;6.752;2023-04-25T03:46:56;5.70;99.90
53711;DHT22;39605;52.704;6.752;2023-04-25T03:49:33;5.70;99.90
53711;DHT22;39605;52.704;6.752;2023-04-25T03:51:59;5.70;99.90
53711;DHT22;39605;52.704;6.752;2023-04-25T03:54:28;5.60;99.90
53711;DHT22;39605;52.704;6.752;2023-04-25T03:56:56;5.80;99.90
53711;DHT22;39605;52.704;6.752;2023-04-25T03:59:29;5.90;99.90
53711;DHT22;39605;52.704;6.752;2023-04-25T04:02:00;5.70;99.90
53711;DHT22;39605;52.704;6.752;2023-04-25T04:04:29;5.80;99.90
53711;DHT22;39605;52.704;6.752;2023-04-25T04:06:55;5.70;99.90
53711;DHT22;39605;52.704;6.752;2023-04-25T04:09:24;5.70;99.90
53711;DHT22;39605;52.704;6.752;2023-04-25T04:11:55;5.70;99.90
53711;DHT22;39605;52.704;6.752;2023-04-25T04:14:33;6.00;99.80
53711;DHT22;39605;52.704;6.752;2023-04-25T04:17:01;5.70;98.60
53711;DHT22;39605;52.704;6.752;2023-04-25T04:19:35;5.70;98.80
53711;DHT22;39605;52.704;6.752;2023-04-25T04:22:04;5.60;97.60
53711;DHT22;39605;52.704;6.752;2023-04-25T04:24:35;5.50;97.50
53711;DHT22;39605;52.704;6.752;2023-04-25T04:27:04;5.60;98.40
53711;DHT22;39605;52.704;6.752;2023-04-25T04:29:32;5.50;97.50
53711;DHT22;39605;52.704;6.752;2023-04-25T04:31:58;5.80;97.40
53711;DHT22;39605;52.704;6.752;2023-04-25T04:34:32;5.80;98.10
53711;DHT22;39605;52.704;6.752;2023-04-25T04:36:59;5.50;98.70
53711;DHT22;39605;52.704;6.752;2023-04-25T04:39:28;5.50;98.60
53711;DHT22;39605;52.704;6.752;2023-04-25T04:41:56;5.50;98.30
53711;DHT22;39605;52.704;6.752;2023-04-25T04:44:25;5.50;98.90
53711;DHT22;39605;52.704;6.752;2023-04-25T04:46:56;5.50;99.10
53711;DHT22;39605;52.704;6.752;2023-04-25T04:49:23;5.50;99.80
53711;DHT22;39605;52.704;6.752;2023-04-25T04:51:49;5.60;99.90
53711;DHT22;39605;52.704;6.752;2023-04-25T04:54:15;5.70;99.90
53711;DHT22;39605;52.704;6.752;2023-04-25T04:56:49;5.60;99.90
53711;DHT22;39605;52.704;6.752;2023-04-25T04:59:24;5.60;99.90
53711;DHT22;39605;52.704;6.752;2023-04-25T05:01:57;5.60;99.90
53711;DHT22;39605;52.704;6.752;2023-04-25T05:04:26;5.60;99.90
53711;DHT22;39605;52.704;6.752;2023-04-25T05:06:57;5.60;99.90
53711;DHT22;39605;52.704;6.752;2023-04-25T05:09:23;5.60;99.90
53711;DHT22;39605;52.704;6.752;2023-04-25T05:11:51;5.70;99.90
53711;DHT22;39605;52.704;6.752;2023-04-25T05:14:22;5.70;99.90
53711;DHT22;39605;52.704;6.752;2023-04-25T05:16:56;5.80;99.80
53711;DHT22;39605;52.704;6.752;2023-04-25T05:19:27;5.80;99.80
53711;DHT22;39605;52.704;6.752;2023-04-25T05:21:52;5.80;99.90
53711;DHT22;39605;52.704;6.752;2023-04-25T05:24:21;5.80;99.60
53711;DHT22;39605;52.704;6.752;2023-04-25T05:26:47;5.80;99.60
53711;DHT22;39605;52.704;6.752;2023-04-25T05:29:13;5.90;99.90
53711;DHT22;39605;52.704;6.752;2023-04-25T05:31:48;5.90;99.90
53711;DHT22;39605;52.704;6.752;2023-04-25T05:34:21;6.00;99.90
53711;DHT22;39605;52.704;6.752;2023-04-25T05:36:50;6.00;99.90
53711;DHT22;39605;52.704;6.752;2023-04-25T05:39:26;6.60;99.90
53711;DHT22;39605;52.704;6.752;2023-04-25T05:41:55;6.10;99.90
53711;DHT22;39605;52.704;6.752;2023-04-25T05:44:23;6.10;99.90
53711;DHT22;39605;52.704;6.752;2023-04-25T05:47:04;6.20;99.90
53711;DHT22;39605;52.704;6.752;2023-04-25T05:49:48;6.20;99.90
53711;DHT22;39605;52.704;6.752;2023-04-25T05:52:14;6.30;99.90
53711;DHT22;39605;52.704;6.752;2023-04-25T05:54:49;6.30;99.90
53711;DHT22;39605;52.704;6.752;2023-04-25T05:57:26;6.30;99.30
53711;DHT22;39605;52.704;6.752;2023-04-25T05:59:52;6.30;99.30
53711;DHT22;39605;52.704;6.752;2023-04-25T06:02:22;6.40;99.80
53711;DHT22;39605;52.704;6.752;2023-04-25T06:04:52;6.40;99.90
53711;DHT22;39605;52.704;6.752;2023-04-25T06:07:19;6.50;99.60
53711;DHT22;39605;52.704;6.752;2023-04-25T06:09:45;6.50;99.40
53711;DHT22;39605;52.704;6.752;2023-04-25T06:12:14;6.80;99.20
53711;DHT22;39605;52.704;6.752;2023-04-25T06:14:41;7.00;99.00
53711;DHT22;39605;52.704;6.752;2023-04-25T06:17:06;7.30;99.00
53711;DHT22;39605;52.704;6.752;2023-04-25T06:19:36;7.30;98.50
53711;DHT22;39605;52.704;6.752;2023-04-25T06:22:05;7.40;97.50
53711;DHT22;39605;52.704;6.752;2023-04-25T06:24:33;7.50;98.20
53711;DHT22;39605;52.704;6.752;2023-04-25T06:26:59;7.50;97.40
53711;DHT22;39605;52.704;6.752;2023-04-25T06:29:25;7.60;97.70
53711;DHT22;39605;52.704;6.752;2023-04-25T06:31:53;7.50;96.10
53711;DHT22;39605;52.704;6.752;2023-04-25T06:34:19;7.60;96.90
53711;DHT22;39605;52.704;6.752;2023-04-25T06:36:48;7.60;96.20
53711;DHT22;39605;52.704;6.752;2023-04-25T06:39:16;7.50;95.80
53711;DHT22;39605;52.704;6.752;2023-04-25T06:41:44;7.50;96.10
53711;DHT22;39605;52.704;6.752;2023-04-25T06:44:10;7.50;95.60
53711;DHT22;39605;52.704;6.752;2023-04-25T06:46:38;7.50;96.00
53711;DHT22;39605;52.704;6.752;2023-04-25T06:49:04;7.60;96.00
53711;DHT22;39605;52.704;6.752;2023-04-25T06:51:44;7.60;95.80
53711;DHT22;39605;52.704;6.752;2023-04-25T06:54:10;7.70;95.60
53711;DHT22;39605;52.704;6.752;2023-04-25T06:56:38;7.60;94.70
53711;DHT22;39605;52.704;6.752;2023-04-25T06:59:12;7.70;94.90
53711;DHT22;39605;52.704;6.752;2023-04-25T07:01:47;7.80;96.30
53711;DHT22;39605;52.704;6.752;2023-04-25T07:04:12;8.30;93.60
53711;DHT22;39605;52.704;6.752;2023-04-25T07:06:38;9.00;94.80
53711;DHT22;39605;52.704;6.752;2023-04-25T07:09:11;9.80;91.80
53711;DHT22;39605;52.704;6.752;2023-04-25T07:11:40;10.80;87.00
53711;DHT22;39605;52.704;6.752;2023-04-25T07:14:05;11.80;80.60
53711;DHT22;39605;52.704;6.752;2023-04-25T07:16:31;12.60;51.80
53711;DHT22;39605;52.704;6.752;2023-04-25T07:18:57;13.00;99.90
53711;DHT22;39605;52.704;6.752;2023-04-25T07:21:25;13.10;99.90
53711;DHT22;39605;52.704;6.752;2023-04-25T07:23:54;13.40;99.90
53711;DHT22;39605;52.704;6.752;2023-04-25T07:26:28;12.40;97.90
53711;DHT22;39605;52.704;6.752;2023-04-25T07:28:54;11.70;99.90
53711;DHT22;39605;52.704;6.752;2023-04-25T07:31:21;11.20;99.20
53711;DHT22;39605;52.704;6.752;2023-04-25T07:33:47;10.70;99.60
53711;DHT22;39605;52.704;6.752;2023-04-25T07:36:13;10.40;99.60
53711;DHT22;39605;52.704;6.752;2023-04-25T07:38:40;10.20;28.00
53711;DHT22;39605;52.704;6.752;2023-04-25T07:41:06;10.00;50.50
53711;DHT22;39605;52.704;6.752;2023-04-25T07:43:32;9.90;57.80
53711;DHT22;39605;52.704;6.752;2023-04-25T07:45:58;9.80;42.10
53711;DHT22;39605;52.704;6.752;2023-04-25T07:48:24;9.70;67.50
53711;DHT22;39605;52.704;6.752;2023-04-25T07:50:50;9.70;65.90
53711;DHT22;39605;52.704;6.752;2023-04-25T07:53:16;9.60;88.50
53711;DHT22;39605;52.704;6.752;2023-04-25T07:55:43;9.60;14.30
53711;DHT22;39605;52.704;6.752;2023-04-25T07:58:11;9.70;85.80
53711;DHT22;39605;52.704;6.752;2023-04-25T08:00:39;9.70;88.20
53711;DHT22;39605;52.704;6.752;2023-04-25T08:03:05;9.90;92.20
53711;DHT22;39605;52.704;6.752;2023-04-25T08:05:31;10.20;93.70
53711;DHT22;39605;52.704;6.752;2023-04-25T08:07:59;10.50;91.20
53711;DHT22;39605;52.704;6.752;2023-04-25T08:10:27;10.50;92.30
53711;DHT22;39605;52.704;6.752;2023-04-25T08:12:53;10.80;92.60
53711;DHT22;39605;52.704;6.752;2023-04-25T08:15:19;10.90;92.40
53711;DHT22;39605;52.704;6.752;2023-04-25T08:17:45;10.80;96.60
53711;DHT22;39605;52.704;6.752;2023-04-25T08:20:11;10.80;99.20
53711;DHT22;39605;52.704;6.752;2023-04-25T08:22:37;10.90;99.40
53711;DHT22;39605;52.704;6.752;2023-04-25T08:25:03;11.00;99.50
53711;DHT22;39605;52.704;6.752;2023-04-25T08:27:29;11.00;99.30
53711;DHT22;39605;52.704;6.752;2023-04-25T08:29:55;11.00;98.90
53711;DHT22;39605;52.704;6.752;2023-04-25T08:32:23;11.20;99.30
53711;DHT22;39605;52.704;6.752;2023-04-25T08:34:49;11.30;98.40
53711;DHT22;39605;52.704;6.752;2023-04-25T08:37:16;11.30;98.70
53711;DHT22;39605;52.704;6.752;2023-04-25T08:39:52;11.30;98.90
53711;DHT22;39605;52.704;6.752;2023-04-25T08:42:19;11.30;99.50
53711;DHT22;39605;52.704;6.752;2023-04-25T08:44:50;11.10;97.00
53711;DHT22;39605;52.704;6.752;2023-04-25T08:47:21;11.20;97.30
53711;DHT22;39605;52.704;6.752;2023-04-25T08:49:48;11.20;97.90
53711;DHT22;39605;52.704;6.752;2023-04-25T08:52:15;11.30;98.80
53711;DHT22;39605;52.704;6.752;2023-04-25T08:54:48;11.50;99.00
53711;DHT22;39605;52.704;6.752;2023-04-25T08:57:15;11.50;97.50
53711;DHT22;39605;52.704;6.752;2023-04-25T08:59:44;11.60;97.50
53711;DHT22;39605;52.704;6.752;2023-04-25T09:02:14;11.60;97.40
53711;DHT22;39605;52.704;6.752;2023-04-25T09:04:45;11.70;98.30
53711;DHT22;39605;52.704;6.752;2023-04-25T09:07:14;12.00;99.60
53711;DHT22;39605;52.704;6.752;2023-04-25T09:09:43;12.20;99.40
53711;DHT22;39605;52.704;6.752;2023-04-25T09:12:10;12.10;99.90
53711;DHT22;39605;52.704;6.752;2023-04-25T09:14:36;12.10;99.90
53711;DHT22;39605;52.704;6.752;2023-04-25T09:17:03;12.00;98.30
53711;DHT22;39605;52.704;6.752;2023-04-25T09:19:33;12.10;99.90
53711;DHT22;39605;52.704;6.752;2023-04-25T09:22:02;12.20;99.90
53711;DHT22;39605;52.704;6.752;2023-04-25T09:24:42;12.40;99.90
53711;DHT22;39605;52.704;6.752;2023-04-25T09:27:17;12.70;99.50
53711;DHT22;39605;52.704;6.752;2023-04-25T09:29:43;12.90;98.60
53711;DHT22;39605;52.704;6.752;2023-04-25T09:32:17;12.90;98.00
53711;DHT22;39605;52.704;6.752;2023-04-25T09:34:48;12.90;97.90
53711;DHT22;39605;52.704;6.752;2023-04-25T09:37:26;13.20;99.90
53711;DHT22;39605;52.704;6.752;2023-04-25T09:39:57;13.30;99.80
53711;DHT22;39605;52.704;6.752;2023-04-25T09:42:25;13.60;99.80
53711;DHT22;39605;52.704;6.752;2023-04-25T09:44:58;13.90;98.50
53711;DHT22;39605;52.704;6.752;2023-04-25T09:47:26;13.80;97.80
53711;DHT22;39605;52.704;6.752;2023-04-25T09:49:53;13.40;96.30
53711;DHT22;39605;52.704;6.752;2023-04-25T09:52:24;12.90;97.40
53711;DHT22;39605;52.704;6.752;2023-04-25T09:54:51;11.80;98.50
53711;DHT22;39605;52.704;6.752;2023-04-25T09:57:21;10.90;30.90
53711;DHT22;39605;52.704;6.752;2023-04-25T09:59:49;10.20;1.00
53711;DHT22;39605;52.704;6.752;2023-04-25T10:02:18;9.70;1.00
53711;DHT22;39605;52.704;6.752;2023-04-25T10:04:50;9.30;1.00
53711;DHT22;39605;52.704;6.752;2023-04-25T10:07:24;9.00;4.30
53711;DHT22;39605;52.704;6.752;2023-04-25T10:09:56;8.70;27.00
53711;DHT22;39605;52.704;6.752;2023-04-25T10:12:24;8.40;29.00
53711;DHT22;39605;52.704;6.752;2023-04-25T10:14:52;8.30;51.00
53711;DHT22;39605;52.704;6.752;2023-04-25T10:17:20;8.30;44.00
53711;DHT22;39605;52.704;6.752;2023-04-25T10:19:47;8.30;47.30
53711;DHT22;39605;52.704;6.752;2023-04-25T10:22:32;8.70;83.40
53711;DHT22;39605;52.704;6.752;2023-04-25T10:24:58;9.40;92.60
53711;DHT22;39605;52.704;6.752;2023-04-25T10:27:27;10.00;86.30
53711;DHT22;39605;52.704;6.752;2023-04-25T10:30:01;10.70;73.50
53711;DHT22;39605;52.704;6.752;2023-04-25T10:32:31;11.00;38.70
53711;DHT22;39605;52.704;6.752;2023-04-25T10:35:04;11.30;35.10
53711;DHT22;39605;52.704;6.752;2023-04-25T10:37:35;11.50;30.20
53711;DHT22;39605;52.704;6.752;2023-04-25T10:40:08;11.40;20.40
53711;DHT22;39605;52.704;6.752;2023-04-25T10:42:35;11.20;26.80
53711;DHT22;39605;52.704;6.752;2023-04-25T10:45:04;10.60;8.60
53711;DHT22;39605;52.704;6.752;2023-04-25T10:47:43;10.00;12.00
53711;DHT22;39605;52.704;6.752;2023-04-25T10:50:10;9.60;1.00
53711;DHT22;39605;52.704;6.752;2023-04-25T10:52:38;9.40;23.20
53711;DHT22;39605;52.704;6.752;2023-04-25T10:55:05;9.30;22.50
53711;DHT22;39605;52.704;6.752;2023-04-25T10:57:42;9.20;32.80
53711;DHT22;39605;52.704;6.752;2023-04-25T11:00:13;9.20;33.70
53711;DHT22;39605;52.704;6.752;2023-04-25T11:02:57;9.30;51.80
53711;DHT22;39605;52.704;6.752;2023-04-25T11:05:31;9.50;68.00
53711;DHT22;39605;52.704;6.752;2023-04-25T11:07:58;9.80;67.90
53711;DHT22;39605;52.704;6.752;2023-04-25T11:10:27;10.20;62.10
53711;DHT22;39605;52.704;6.752;2023-04-25T11:12:56;10.60;29.70
53711;DHT22;39605;52.704;6.752;2023-04-25T11:15:22;10.80;25.80
53711;DHT22;39605;52.704;6.752;2023-04-25T11:17:50;10.80;7.20
53711;DHT22;39605;52.704;6.752;2023-04-25T11:20:16;10.70;1.00
53711;DHT22;39605;52.704;6.752;2023-04-25T11:22:46;10.60;1.00
53711;DHT22;39605;52.704;6.752;2023-04-25T11:25:13;10.50;1.00
53711;DHT22;39605;52.704;6.752;2023-04-25T11:27:55;10.50;10.80
53711;DHT22;39605;52.704;6.752;2023-04-25T11:30:23;10.70;24.90
53711;DHT22;39605;52.704;6.752;2023-04-25T11:32:49;11.00;16.90
53711;DHT22;39605;52.704;6.752;2023-04-25T11:35:16;11.30;3.80
53711;DHT22;39605;52.704;6.752;2023-04-25T11:37:43;11.70;1.00
53711;DHT22;39605;52.704;6.752;2023-04-25T11:40:09;12.10;1.00
53711;DHT22;39605;52.704;6.752;2023-04-25T11:42:44;12.40;1.00
53711;DHT22;39605;52.704;6.752;2023-04-25T11:45:10;12.50;1.00
53711;DHT22;39605;52.704;6.752;2023-04-25T11:47:43;12.60;1.00
53711;DHT22;39605;52.704;6.752;2023-04-25T11:50:11;12.80;1.00
53711;DHT22;39605;52.704;6.752;2023-04-25T11:52:44;13.00;1.00
53711;DHT22;39605;52.704;6.752;2023-04-25T11:55:13;13.20;1.00
53711;DHT22;39605;52.704;6.752;2023-04-25T11:57:41;13.50;1.00
53711;DHT22;39605;52.704;6.752;2023-04-25T12:00:20;13.70;1.00
53711;DHT22;39605;52.704;6.752;2023-04-25T12:02:50;14.00;1.00
53711;DHT22;39605;52.704;6.752;2023-04-25T12:05:26;14.00;99.90
53711;DHT22;39605;52.704;6.752;2023-04-25T12:07:52;14.10;99.90
53711;DHT22;39605;52.704;6.752;2023-04-25T12:10:19;14.20;99.90
53711;DHT22;39605;52.704;6.752;2023-04-25T12:12:46;14.00;99.90
53711;DHT22;39605;52.704;6.752;2023-04-25T12:15:17;13.30;99.90
53711;DHT22;39605;52.704;6.752;2023-04-25T12:17:46;12.60;99.90
53711;DHT22;39605;52.704;6.752;2023-04-25T12:20:14;12.00;99.90
53711;DHT22;39605;52.704;6.752;2023-04-25T12:22:51;11.60;99.90
53711;DHT22;39605;52.704;6.752;2023-04-25T12:28:23;10.70;1.00
53711;DHT22;39605;52.704;6.752;2023-04-25T12:31:01;10.50;1.00
53711;DHT22;39605;52.704;6.752;2023-04-25T12:33:37;10.40;1.00
53711;DHT22;39605;52.704;6.752;2023-04-25T12:36:07;10.80;1.00
53711;DHT22;39605;52.704;6.752;2023-04-25T12:38:43;11.20;1.00
53711;DHT22;39605;52.704;6.752;2023-04-25T12:41:09;11.70;1.00
53711;DHT22;39605;52.704;6.752;2023-04-25T12:43:44;12.10;1.00
53711;DHT22;39605;52.704;6.752;2023-04-25T12:46:10;12.40;1.00
53711;DHT22;39605;52.704;6.752;2023-04-25T12:48:39;12.50;99.90
53711;DHT22;39605;52.704;6.752;2023-04-25T12:51:08;12.50;99.90
53711;DHT22;39605;52.704;6.752;2023-04-25T12:53:36;12.60;99.90
53711;DHT22;39605;52.704;6.752;2023-04-25T12:56:04;12.70;99.90
53711;DHT22;39605;52.704;6.752;2023-04-25T12:58:31;12.80;99.90
53711;DHT22;39605;52.704;6.752;2023-04-25T13:00:58;12.80;30.20
53711;DHT22;39605;52.704;6.752;2023-04-25T13:03:27;12.70;1.00
53711;DHT22;39605;52.704;6.752;2023-04-25T13:05:56;12.60;99.90
53711;DHT22;39605;52.704;6.752;2023-04-25T13:08:25;12.70;1.00
53711;DHT22;39605;52.704;6.752;2023-04-25T13:10:50;12.90;1.00
53711;DHT22;39605;52.704;6.752;2023-04-25T13:13:24;13.20;1.00
53711;DHT22;39605;52.704;6.752;2023-04-25T13:15:53;13.30;1.00
53711;DHT22;39605;52.704;6.752;2023-04-25T13:18:23;13.20;1.00
53711;DHT22;39605;52.704;6.752;2023-04-25T13:20:58;13.10;1.00
53711;DHT22;39605;52.704;6.752;2023-04-25T13:23:26;12.90;99.90
53711;DHT22;39605;52.704;6.752;2023-04-25T13:26:04;12.80;99.90
53711;DHT22;39605;52.704;6.752;2023-04-25T13:28:30;12.90;1.00
53711;DHT22;39605;52.704;6.752;2023-04-25T13:30:58;12.90;99.90
53711;DHT22;39605;52.704;6.752;2023-04-25T13:33:43;12.90;99.90
53711;DHT22;39605;52.704;6.752;2023-04-25T13:36:11;12.70;99.90
53711;DHT22;39605;52.704;6.752;2023-04-25T13:38:43;12.60;99.90
53711;DHT22;39605;52.704;6.752;2023-04-25T13:41:10;12.20;99.90
53711;DHT22;39605;52.704;6.752;2023-04-25T13:43:44;12.10;99.90
53711;DHT22;39605;52.704;6.752;2023-04-25T13:46:15;11.90;1.00
53711;DHT22;39605;52.704;6.752;2023-04-25T13:48:41;11.50;99.90
53711;DHT22;39605;52.704;6.752;2023-04-25T13:51:15;11.10;99.90
53711;DHT22;39605;52.704;6.752;2023-04-25T13:53:44;10.90;99.90
53711;DHT22;39605;52.704;6.752;2023-04-25T13:56:11;11.00;1.00
53711;DHT22;39605;52.704;6.752;2023-04-25T13:58:39;11.00;1.00
53711;DHT22;39605;52.704;6.752;2023-04-25T14:01:25;11.40;1.00
53711;DHT22;39605;52.704;6.752;2023-04-25T14:04:08;11.20;1.00
53711;DHT22;39605;52.704;6.752;2023-04-25T14:06:37;11.60;1.00
53711;DHT22;39605;52.704;6.752;2023-04-25T14:09:03;12.00;99.90
53711;DHT22;39605;52.704;6.752;2023-04-25T14:11:32;12.40;63.40
53711;DHT22;39605;52.704;6.752;2023-04-25T14:13:58;12.80;1.00
53711;DHT22;39605;52.704;6.752;2023-04-25T14:16:24;13.10;99.90
53711;DHT22;39605;52.704;6.752;2023-04-25T14:18:53;13.10;99.90
53711;DHT22;39605;52.704;6.752;2023-04-25T14:21:27;13.00;76.60
53711;DHT22;39605;52.704;6.752;2023-04-25T14:23:56;13.10;83.00
53711;DHT22;39605;52.704;6.752;2023-04-25T14:26:30;13.10;30.20
53711;DHT22;39605;52.704;6.752;2023-04-25T14:28:58;13.20;1.00
53711;DHT22;39605;52.704;6.752;2023-04-25T14:31:26;13.30;1.00
53711;DHT22;39605;52.704;6.752;2023-04-25T14:34:08;13.30;1.00
53711;DHT22;39605;52.704;6.752;2023-04-25T14:36:35;13.40;1.00
53711;DHT22;39605;52.704;6.752;2023-04-25T14:39:12;13.10;1.00
53711;DHT22;39605;52.704;6.752;2023-04-25T14:41:45;12.70;1.00
53711;DHT22;39605;52.704;6.752;2023-04-25T14:44:11;12.20;99.90
53711;DHT22;39605;52.704;6.752;2023-04-25T14:46:55;11.80;1.00
53711;DHT22;39605;52.704;6.752;2023-04-25T14:49:25;11.40;52.90
53711;DHT22;39605;52.704;6.752;2023-04-25T14:51:53;11.20;70.90
53711;DHT22;39605;52.704;6.752;2023-04-25T14:54:27;11.10;99.90
53711;DHT22;39605;52.704;6.752;2023-04-25T14:56:55;10.70;99.90
53711;DHT22;39605;52.704;6.752;2023-04-25T14:59:59;10.80;1.00
53711;DHT22;39605;52.704;6.752;2023-04-25T15:02:29;10.70;99.90
53711;DHT22;39605;52.704;6.752;2023-04-25T15:05:13;10.60;99.90
53711;DHT22;39605;52.704;6.752;2023-04-25T15:07:42;10.40;99.90
53711;DHT22;39605;52.704;6.752;2023-04-25T15:10:10;10.20;99.90
53711;DHT22;39605;52.704;6.752;2023-04-25T15:15:53;10.00;1.00
53711;DHT22;39605;52.704;6.752;2023-04-25T15:18:42;10.00;1.00
53711;DHT22;39605;52.704;6.752;2023-04-25T15:21:16;10.00;99.90
53711;DHT22;39605;52.704;6.752;2023-04-25T15:23:48;10.00;99.90
53711;DHT22;39605;52.704;6.752;2023-04-25T15:26:14;10.00;1.00
53711;DHT22;39605;52.704;6.752;2023-04-25T15:28:41;10.10;1.00
53711;DHT22;39605;52.704;6.752;2023-04-25T15:31:09;10.40;1.00
53711;DHT22;39605;52.704;6.752;2023-04-25T15:33:43;10.60;1.00
53711;DHT22;39605;52.704;6.752;2023-04-25T15:36:11;10.80;99.90
53711;DHT22;39605;52.704;6.752;2023-04-25T15:38:37;11.00;99.90
53711;DHT22;39605;52.704;6.752;2023-04-25T15:41:04;11.10;99.90
53711;DHT22;39605;52.704;6.752;2023-04-25T15:43:30;11.40;99.90
53711;DHT22;39605;52.704;6.752;2023-04-25T15:46:06;11.10;99.90
53711;DHT22;39605;52.704;6.752;2023-04-25T15:48:32;11.00;99.90
53711;DHT22;39605;52.704;6.752;2023-04-25T15:51:09;10.80;99.90
53711;DHT22;39605;52.704;6.752;2023-04-25T15:53:40;10.70;99.90
53711;DHT22;39605;52.704;6.752;2023-04-25T15:56:15;10.50;99.90
53711;DHT22;39605;52.704;6.752;2023-04-25T15:58:44;10.40;99.90
53711;DHT22;39605;52.704;6.752;2023-04-25T16:01:22;10.20;99.90
53711;DHT22;39605;52.704;6.752;2023-04-25T16:03:53;10.00;1.00